createdAt,value
2018-12-16T00:00:17.809Z,99.99
2018-12-16T00:01:27.622Z,99.99
2018-12-16T00:02:37.444Z,99.99
2018-12-16T00:03:47.532Z,99.99
2018-12-16T00:04:57.611Z,99.99
2018-12-16T00:06:07.756Z,99.99
2018-12-16T00:07:18.327Z,99.99
2018-12-16T00:08:28.141Z,99.99
2018-12-16T00:09:38.264Z,99.99
2018-12-16T00:10:48.329Z,99.99
2018-12-16T00:11:58.152Z,99.99
2018-12-16T00:13:08.222Z,99.99
2018-12-16T00:14:18.287Z,99.99
2018-12-16T00:15:28.353Z,99.99
2018-12-16T00:16:38.439Z,99.99
2018-12-16T00:17:48.533Z,99.99
2018-12-16T00:18:58.533Z,99.99
2018-12-16T00:20:08.330Z,99.99
2018-12-16T00:21:18.498Z,99.99
2018-12-16T00:22:32.369Z,99.99
2018-12-16T00:23:42.488Z,99.99
2018-12-16T00:24:52.298Z,99.99
2018-12-16T00:26:02.100Z,99.99
2018-12-16T00:27:12.155Z,99.99
2018-12-16T00:28:22.334Z,99.99
2018-12-16T00:29:32.148Z,99.99
2018-12-16T00:30:41.950Z,99.99
2018-12-16T00:31:52.016Z,99.99
2018-12-16T00:33:02.145Z,99.99
2018-12-16T00:34:12.214Z,99.99
2018-12-16T00:35:22.426Z,99.99
2018-12-16T00:36:32.233Z,99.99
2018-12-16T00:37:41.798Z,99.99
2018-12-16T00:38:51.851Z,99.99
2018-12-16T00:40:03.256Z,99.99
2018-12-16T00:41:13.167Z,99.99
2018-12-16T00:42:23.223Z,99.99
2018-12-16T00:43:33.297Z,99.99
2018-12-16T00:44:43.366Z,99.99
2018-12-16T00:45:53.464Z,99.99
2018-12-16T00:47:03.453Z,99.99
2018-12-16T00:48:13.501Z,99.99
2018-12-16T00:49:23.580Z,99.99
2018-12-16T00:50:33.370Z,99.99
2018-12-16T00:51:43.432Z,99.99
2018-12-16T00:52:53.493Z,99.99
2018-12-16T00:54:03.290Z,99.99
2018-12-16T00:55:13.138Z,99.99
2018-12-16T00:56:22.956Z,99.99
2018-12-16T00:57:32.777Z,99.99
2018-12-16T00:58:42.787Z,99.99
2018-12-16T00:59:52.841Z,99.99
2018-12-16T01:01:02.912Z,99.99
2018-12-16T01:02:12.972Z,99.99
2018-12-16T01:03:23.034Z,99.99
2018-12-16T01:04:32.890Z,99.99
2018-12-16T01:05:42.695Z,99.99
2018-12-16T01:06:52.489Z,99.99
2018-12-16T01:08:02.609Z,99.99
2018-12-16T01:09:12.686Z,99.99
2018-12-16T01:10:22.747Z,99.99
2018-12-16T01:11:32.816Z,99.99
2018-12-16T01:12:42.623Z,99.99
2018-12-16T01:13:52.707Z,99.99
2018-12-16T01:15:05.147Z,99.99
2018-12-16T01:16:15.249Z,99.99
2018-12-16T01:17:25.117Z,99.99
2018-12-16T01:18:35.162Z,99.99
2018-12-16T01:19:45.225Z,99.99
2018-12-16T01:20:55.284Z,99.99
2018-12-16T01:22:05.391Z,99.99
2018-12-16T01:23:15.460Z,99.99
2018-12-16T01:24:25.259Z,99.99
2018-12-16T01:25:35.322Z,99.99
2018-12-16T01:26:45.373Z,99.99
2018-12-16T01:27:55.675Z,99.99
2018-12-16T01:29:06.632Z,99.99
2018-12-16T01:30:16.769Z,99.99
2018-12-16T01:31:27.307Z,99.99
2018-12-16T01:32:37.374Z,99.99
2018-12-16T01:33:47.471Z,99.99
2018-12-16T01:34:57.280Z,99.99
2018-12-16T01:36:08.331Z,99.99
2018-12-16T01:37:18.385Z,99.99
2018-12-16T01:38:28.181Z,99.99
2018-12-16T01:39:38.262Z,99.99
2018-12-16T01:40:48.079Z,99.99
2018-12-16T01:41:58.133Z,99.99
2018-12-16T01:43:08.193Z,99.99
2018-12-16T01:44:18.254Z,99.99
2018-12-16T01:45:28.310Z,99.99
2018-12-16T01:46:38.444Z,99.99
2018-12-16T01:47:48.515Z,99.99
2018-12-16T01:48:58.578Z,99.99
2018-12-16T01:50:10.629Z,99.99
2018-12-16T01:51:20.786Z,99.99
2018-12-16T01:52:30.866Z,99.99
2018-12-16T01:53:40.673Z,99.99
2018-12-16T01:54:50.514Z,99.99
2018-12-16T01:56:00.418Z,99.99
2018-12-16T01:57:10.501Z,99.99
2018-12-16T01:58:20.603Z,99.99
2018-12-16T01:59:30.662Z,99.99
2018-12-16T02:00:40.734Z,99.99
2018-12-16T02:01:50.689Z,99.99
2018-12-16T02:03:00.585Z,99.99
2018-12-16T02:04:10.670Z,99.99
2018-12-16T02:05:21.200Z,99.99
2018-12-16T02:06:31.002Z,99.99
2018-12-16T02:07:41.054Z,99.99
2018-12-16T02:08:50.890Z,99.99
2018-12-16T02:10:01.710Z,99.99
2018-12-16T02:11:11.763Z,99.99
2018-12-16T02:12:21.813Z,99.99
2018-12-16T02:13:31.352Z,99.99
2018-12-16T02:14:41.462Z,99.99
2018-12-16T02:15:51.255Z,99.99
2018-12-16T02:17:01.432Z,99.99
2018-12-16T02:18:11.505Z,99.99
2018-12-16T02:19:21.579Z,99.99
2018-12-16T02:20:31.643Z,99.99
2018-12-16T02:21:41.709Z,99.99
2018-12-16T02:22:56.748Z,99.99
2018-12-16T02:24:07.097Z,99.99
2018-12-16T02:25:16.903Z,99.99
2018-12-16T02:26:26.713Z,99.99
2018-12-16T02:27:36.512Z,99.99
2018-12-16T02:28:46.570Z,99.99
2018-12-16T02:29:56.621Z,99.99
2018-12-16T02:31:08.491Z,99.99
2018-12-16T02:32:18.792Z,99.99
2018-12-16T02:33:29.079Z,99.99
2018-12-16T02:34:39.154Z,99.99
2018-12-16T02:35:49.220Z,99.99
2018-12-16T02:36:59.010Z,99.99
2018-12-16T02:38:09.394Z,99.99
2018-12-16T02:39:19.208Z,99.99
2018-12-16T02:40:29.008Z,99.99
2018-12-16T02:41:39.082Z,99.99
2018-12-16T02:42:49.138Z,99.99
2018-12-16T02:43:59.268Z,99.99
2018-12-16T02:45:09.630Z,99.99
2018-12-16T02:46:19.429Z,99.99
2018-12-16T02:47:29.503Z,99.99
2018-12-16T02:48:39.565Z,99.99
2018-12-16T02:49:49.714Z,99.99
2018-12-16T02:50:59.521Z,99.99
2018-12-16T02:52:09.320Z,99.99
2018-12-16T02:53:19.387Z,99.99
2018-12-16T02:54:29.186Z,99.99
2018-12-16T02:55:39.053Z,99.99
2018-12-16T02:56:48.866Z,99.99
2018-12-16T02:57:58.998Z,99.99
2018-12-16T02:59:09.907Z,99.99
2018-12-16T03:00:20.272Z,99.99
2018-12-16T03:01:30.458Z,99.99
2018-12-16T03:02:40.506Z,99.99
2018-12-16T03:35:00.553Z,95.12
2018-12-16T03:36:10.637Z,96.07
2018-12-16T03:37:20.692Z,96.73
2018-12-16T03:38:30.774Z,97.67
2018-12-16T03:39:40.828Z,98.62
2018-12-16T03:40:50.988Z,99.76
2018-12-16T03:42:01.056Z,99.99
2018-12-16T03:43:11.096Z,99.99
2018-12-16T03:44:20.906Z,99.99
2018-12-16T03:45:30.966Z,99.99
2018-12-16T03:46:41.010Z,99.99
2018-12-16T03:47:50.937Z,99.99
2018-12-16T03:49:02.953Z,99.99
2018-12-16T03:50:12.764Z,99.99
2018-12-16T03:51:22.560Z,99.99
2018-12-16T03:52:32.674Z,99.99
2018-12-16T03:53:43.207Z,99.99
2018-12-16T03:54:53.026Z,99.99
2018-12-16T03:56:03.213Z,99.99
2018-12-16T03:57:13.290Z,99.99
2018-12-16T03:58:23.426Z,99.99
2018-12-16T03:59:33.473Z,99.99
2018-12-16T04:00:43.538Z,99.99
2018-12-16T04:01:53.610Z,99.99
2018-12-16T04:03:03.440Z,99.99
2018-12-16T04:04:13.584Z,99.99
2018-12-16T04:07:46.866Z,99.99
2018-12-16T04:08:56.949Z,99.99
2018-12-16T04:10:07.008Z,99.99
2018-12-16T04:11:17.090Z,99.99
2018-12-16T04:12:26.626Z,99.99
2018-12-16T04:13:36.814Z,99.99
2018-12-16T04:14:46.890Z,99.99
2018-12-16T04:15:56.923Z,99.99
2018-12-16T04:17:08.185Z,99.99
2018-12-16T04:18:17.980Z,99.99
2018-12-16T04:19:27.541Z,99.99
2018-12-16T04:20:37.613Z,99.99
2018-12-16T04:21:48.151Z,99.99
2018-12-16T04:22:58.212Z,99.99
2018-12-16T04:24:08.286Z,99.99
2018-12-16T04:25:18.141Z,99.99
2018-12-16T04:26:27.947Z,99.99
2018-12-16T04:27:37.759Z,99.99
2018-12-16T04:28:47.684Z,99.99
2018-12-16T04:29:57.486Z,99.99
2018-12-16T04:31:08.439Z,99.99
2018-12-16T04:32:18.329Z,99.99
2018-12-16T04:33:28.453Z,99.99
2018-12-16T04:34:38.498Z,99.99
2018-12-16T04:35:48.548Z,99.99
2018-12-16T04:36:58.667Z,99.99
2018-12-16T04:38:08.719Z,99.99
2018-12-16T04:39:18.814Z,99.99
2018-12-16T04:40:28.896Z,99.99
2018-12-16T04:41:38.703Z,99.99
2018-12-16T04:42:48.765Z,99.99
2018-12-16T04:43:58.825Z,99.99
2018-12-16T04:45:10.256Z,99.99
2018-12-16T04:46:20.338Z,99.99
2018-12-16T04:47:30.871Z,99.99
2018-12-16T04:48:40.676Z,99.99
2018-12-16T04:49:50.477Z,99.99
2018-12-16T04:51:00.326Z,99.99
2018-12-16T04:52:10.349Z,99.99
2018-12-16T04:53:20.407Z,99.99
2018-12-16T04:54:37.839Z,99.99
2018-12-16T04:55:47.918Z,99.99
2018-12-16T04:56:57.770Z,99.99
2018-12-16T04:58:07.788Z,99.99
2018-12-16T04:59:17.836Z,99.99
2018-12-16T05:00:27.903Z,99.99
2018-12-16T05:01:37.438Z,99.99
2018-12-16T05:02:47.586Z,99.99
2018-12-16T05:03:57.137Z,99.99
2018-12-16T05:05:07.189Z,99.99
2018-12-16T05:06:16.736Z,99.99
2018-12-16T05:07:27.863Z,99.99
2018-12-16T05:08:38.005Z,99.99
2018-12-16T05:09:48.093Z,99.99
2018-12-16T05:10:57.909Z,99.99
2018-12-16T05:12:10.624Z,99.99
2018-12-16T05:13:20.688Z,99.99
2018-12-16T05:14:30.485Z,99.99
2018-12-16T05:15:40.824Z,99.99
2018-12-16T05:16:50.937Z,99.99
2018-12-16T05:18:02.948Z,99.99
2018-12-16T05:19:12.750Z,99.99
2018-12-16T05:20:22.822Z,99.99
2018-12-16T05:21:32.372Z,99.99
2018-12-16T05:22:42.417Z,99.99
2018-12-16T05:23:52.223Z,99.99
2018-12-16T05:25:02.006Z,99.99
2018-12-16T05:26:12.133Z,99.99
2018-12-16T05:27:21.943Z,99.99
2018-12-16T05:28:32.455Z,99.99
2018-12-16T05:29:42.261Z,99.99
2018-12-16T05:30:52.320Z,99.99
2018-12-16T05:32:02.355Z,99.99
2018-12-16T05:33:12.432Z,99.99
2018-12-16T05:34:22.243Z,99.99
2018-12-16T05:35:32.309Z,99.99
2018-12-16T05:36:42.120Z,99.99
2018-12-16T05:37:52.167Z,99.99
2018-12-16T05:39:02.238Z,99.99
2018-12-16T05:40:12.309Z,99.99
2018-12-16T05:41:22.338Z,99.99
2018-12-16T05:42:32.409Z,99.99
2018-12-16T05:43:42.209Z,99.99
2018-12-16T05:44:52.261Z,99.99
2018-12-16T05:46:02.320Z,99.99
2018-12-16T05:47:12.561Z,99.99
2018-12-16T05:48:22.844Z,99.99
2018-12-16T05:49:32.914Z,99.99
2018-12-16T05:50:42.449Z,99.99
2018-12-16T05:51:52.495Z,99.99
2018-12-16T05:53:03.596Z,99.99
2018-12-16T05:54:13.664Z,99.99
2018-12-16T05:55:23.742Z,99.99
2018-12-16T05:56:33.297Z,99.99
2018-12-16T05:57:43.404Z,99.99
2018-12-16T05:58:53.462Z,99.99
2018-12-16T06:00:05.132Z,99.99
2018-12-16T06:01:15.296Z,99.99
2018-12-16T06:02:25.369Z,99.99
2018-12-16T06:03:35.432Z,99.99
2018-12-16T06:04:45.509Z,99.99
2018-12-16T06:05:55.601Z,99.99
2018-12-16T06:07:05.139Z,99.99
2018-12-16T06:08:15.212Z,99.99
2018-12-16T06:09:25.311Z,99.99
2018-12-16T06:10:35.372Z,99.99
2018-12-16T06:11:45.438Z,99.99
2018-12-16T06:12:56.135Z,99.99
2018-12-16T06:14:06.180Z,99.99
2018-12-16T06:15:15.978Z,99.99
2018-12-16T06:16:26.041Z,99.99
2018-12-16T06:17:36.102Z,99.99
2018-12-16T06:18:45.911Z,99.99
2018-12-16T06:19:55.961Z,99.99
2018-12-16T06:21:07.152Z,99.99
2018-12-16T06:22:16.965Z,99.99
2018-12-16T06:23:27.007Z,99.99
2018-12-16T06:24:37.053Z,99.99
2018-12-16T06:25:46.843Z,99.99
2018-12-16T06:26:56.957Z,99.99
2018-12-16T06:28:07.013Z,99.99
2018-12-16T06:29:17.063Z,99.99
2018-12-16T06:30:27.112Z,99.99
2018-12-16T06:31:37.152Z,99.99
2018-12-16T06:32:47.385Z,99.99
2018-12-16T06:33:57.456Z,99.99
2018-12-16T06:35:07.515Z,99.99
2018-12-16T06:36:17.335Z,99.99
2018-12-16T06:37:27.428Z,99.99
2018-12-16T06:38:37.516Z,99.99
2018-12-16T06:39:47.568Z,99.99
2018-12-16T06:40:57.361Z,99.99
2018-12-16T06:42:07.411Z,99.99
2018-12-16T06:43:17.458Z,99.99
2018-12-16T06:44:27.564Z,99.99
2018-12-16T06:45:37.627Z,99.99
2018-12-16T06:46:47.443Z,99.99
2018-12-16T06:47:57.508Z,99.99
2018-12-16T06:49:07.512Z,99.99
2018-12-16T06:50:17.299Z,99.99
2018-12-16T06:51:27.115Z,99.99
2018-12-16T06:52:36.918Z,99.99
2018-12-16T06:53:47.018Z,99.99
2018-12-16T06:54:57.081Z,99.99
2018-12-16T06:56:09.211Z,99.99
2018-12-16T06:57:19.291Z,99.99
2018-12-16T06:58:29.090Z,99.99
2018-12-16T06:59:39.142Z,99.99
2018-12-16T07:00:49.229Z,99.99
2018-12-16T07:01:59.300Z,99.99
2018-12-16T07:03:09.389Z,99.99
2018-12-16T07:04:19.180Z,99.99
2018-12-16T07:05:29.309Z,99.99
2018-12-16T07:06:39.115Z,99.99
2018-12-16T07:07:49.235Z,99.99
2018-12-16T07:08:59.304Z,99.99
2018-12-16T07:10:09.361Z,99.99
2018-12-16T07:11:19.416Z,99.99
2018-12-16T07:12:29.293Z,99.99
2018-12-16T07:13:39.453Z,99.99
2018-12-16T07:14:49.521Z,99.99
2018-12-16T07:15:59.571Z,99.99
2018-12-16T07:17:09.693Z,99.99
2018-12-16T07:18:19.785Z,99.99
2018-12-16T07:19:29.953Z,99.99
2018-12-16T07:20:40.050Z,99.99
2018-12-16T07:21:50.100Z,99.99
2018-12-16T07:23:00.209Z,99.99
2018-12-16T07:24:11.890Z,99.99
2018-12-16T07:25:22.024Z,99.99
2018-12-16T07:26:32.154Z,99.99
2018-12-16T07:27:42.300Z,99.99
2018-12-16T07:28:52.428Z,99.99
2018-12-16T07:30:02.542Z,99.99
2018-12-16T07:31:12.661Z,99.99
2018-12-16T07:32:22.746Z,99.99
2018-12-16T07:33:32.843Z,99.99
2018-12-16T07:34:42.672Z,99.99
2018-12-16T07:35:52.772Z,99.99
2018-12-16T07:37:02.938Z,99.99
2018-12-16T07:38:13.046Z,99.99
2018-12-16T07:39:23.425Z,99.99
2018-12-16T07:40:33.655Z,99.99
2018-12-16T07:41:43.980Z,99.99
2018-12-16T07:42:54.183Z,99.99
2018-12-16T07:44:04.041Z,99.99
2018-12-16T07:45:13.661Z,99.99
2018-12-16T07:46:23.580Z,99.99
2018-12-16T07:47:33.669Z,99.99
2018-12-16T07:48:43.886Z,99.99
2018-12-16T07:49:54.007Z,99.99
2018-12-16T07:51:04.824Z,99.99
2018-12-16T07:52:14.908Z,99.99
2018-12-16T07:53:24.972Z,99.99
2018-12-16T07:54:34.873Z,99.99
2018-12-16T07:55:44.507Z,99.99
2018-12-16T07:56:54.607Z,99.99
2018-12-16T07:58:04.847Z,99.99
2018-12-16T07:59:14.988Z,99.99
2018-12-16T08:00:25.067Z,99.99
2018-12-16T08:01:34.958Z,99.99
2018-12-16T08:02:45.102Z,99.99
2018-12-16T08:03:55.247Z,99.99
2018-12-16T08:05:06.589Z,99.99
2018-12-16T08:06:16.925Z,99.99
2018-12-16T08:07:26.777Z,99.99
2018-12-16T08:08:36.605Z,99.99
2018-12-16T08:09:46.591Z,99.99
2018-12-16T08:10:56.653Z,99.99
2018-12-16T08:12:06.663Z,99.99
2018-12-16T08:13:16.725Z,99.99
2018-12-16T08:14:26.815Z,99.99
2018-12-16T08:15:36.853Z,99.99
2018-12-16T08:16:46.920Z,99.99
2018-12-16T08:17:56.985Z,99.99
2018-12-16T08:19:09.630Z,99.99
2018-12-16T08:20:19.184Z,99.99
2018-12-16T08:21:29.290Z,99.99
2018-12-16T08:22:39.325Z,99.99
2018-12-16T08:23:49.386Z,99.99
2018-12-16T08:24:59.442Z,99.99
2018-12-16T08:26:09.293Z,99.99
2018-12-16T08:27:19.345Z,99.99
2018-12-16T08:28:29.460Z,99.99
2018-12-16T08:29:39.634Z,99.99
2018-12-16T08:30:49.438Z,99.99
2018-12-16T08:31:59.526Z,99.99
2018-12-16T08:33:09.364Z,99.99
2018-12-16T08:34:19.430Z,99.99
2018-12-16T08:35:30.358Z,99.99
2018-12-16T08:36:40.162Z,99.99
2018-12-16T08:37:49.971Z,99.99
2018-12-16T08:39:00.037Z,99.99
2018-12-16T08:40:10.923Z,99.99
2018-12-16T08:41:21.210Z,99.99
2018-12-16T08:42:31.290Z,99.99
2018-12-16T08:43:41.386Z,99.99
2018-12-16T08:44:51.460Z,99.99
2018-12-16T08:46:01.631Z,99.99
2018-12-16T08:47:11.704Z,99.99
2018-12-16T08:48:21.516Z,99.99
2018-12-16T08:49:31.588Z,99.99
2018-12-16T08:50:41.904Z,99.99
2018-12-16T08:51:52.049Z,99.99
2018-12-16T08:53:02.108Z,99.99
2018-12-16T08:54:12.236Z,99.99
2018-12-16T08:55:22.076Z,99.99
2018-12-16T08:56:31.880Z,99.99
2018-12-16T08:57:42.014Z,99.99
2018-12-16T08:58:52.102Z,99.99
2018-12-16T09:00:02.198Z,99.99
2018-12-16T09:01:12.046Z,99.99
2018-12-16T09:02:21.835Z,99.99
2018-12-16T09:03:32.165Z,99.99
2018-12-16T09:04:42.038Z,99.99
2018-12-16T09:05:52.140Z,99.99
2018-12-16T09:07:02.225Z,99.99
2018-12-16T09:08:12.306Z,99.99
2018-12-16T09:09:22.397Z,99.99
2018-12-16T09:10:36.670Z,99.99
2018-12-16T09:11:46.764Z,99.99
2018-12-16T09:12:56.860Z,99.99
2018-12-16T09:14:06.941Z,99.99
2018-12-16T09:15:16.812Z,99.99
2018-12-16T09:16:26.886Z,99.99
2018-12-16T09:17:36.967Z,99.99
2018-12-16T09:18:47.050Z,99.99
2018-12-16T09:19:57.121Z,99.99
2018-12-16T09:21:08.767Z,99.99
2018-12-16T09:22:18.861Z,99.99
2018-12-16T09:23:28.934Z,99.91
2018-12-16T09:24:39.910Z,99.99
2018-12-16T09:25:50.014Z,99.99
2018-12-16T09:26:59.846Z,99.91
2018-12-16T09:28:09.707Z,99.99
2018-12-16T09:29:19.829Z,99.99
2018-12-16T09:30:29.741Z,99.99
2018-12-16T09:31:39.815Z,99.99
2018-12-16T09:32:49.887Z,99.99
2018-12-16T09:33:59.959Z,99.99
2018-12-16T09:35:10.030Z,99.99
2018-12-16T09:36:20.407Z,99.99
2018-12-16T09:37:30.547Z,99.99
2018-12-16T09:38:40.635Z,99.99
2018-12-16T09:39:50.466Z,99.99
2018-12-16T09:41:00.309Z,99.99
2018-12-16T09:42:10.153Z,99.99
2018-12-16T09:43:20.508Z,99.99
2018-12-16T09:44:30.586Z,99.99
2018-12-16T09:45:40.646Z,99.99
2018-12-16T09:46:57.340Z,99.99
2018-12-16T09:48:07.146Z,99.99
2018-12-16T09:49:17.073Z,99.99
2018-12-16T09:50:27.162Z,99.63
2018-12-16T09:51:37.232Z,99.82
2018-12-16T09:52:47.300Z,99.44
2018-12-16T09:53:57.357Z,99.44
2018-12-16T09:55:07.654Z,99.11
2018-12-16T09:56:17.774Z,99.49
2018-12-16T09:57:28.880Z,99.58
2018-12-16T09:58:39.050Z,99.49
2018-12-16T09:59:49.222Z,99.3
2018-12-16T10:00:59.299Z,99.58
2018-12-16T10:02:09.114Z,99.44
2018-12-16T10:03:19.203Z,99.99
2018-12-16T10:04:29.281Z,99.99
2018-12-16T10:05:39.412Z,99.99
2018-12-16T10:06:50.172Z,99.99
2018-12-16T10:08:00.298Z,99.99
2018-12-16T10:09:10.713Z,99.99
2018-12-16T10:10:22.426Z,99.99
2018-12-16T10:11:32.291Z,99.99
2018-12-16T10:12:42.352Z,99.99
2018-12-16T10:13:52.408Z,99.99
2018-12-16T10:15:02.516Z,99.99
2018-12-16T10:16:12.581Z,99.99
2018-12-16T10:17:22.679Z,99.99
2018-12-16T10:18:32.876Z,99.99
2018-12-16T10:19:42.958Z,99.99
2018-12-16T10:20:53.019Z,99.99
2018-12-16T10:22:04.198Z,99.99
2018-12-16T10:23:14.277Z,99.96
2018-12-16T10:24:24.433Z,99.73
2018-12-16T10:25:34.532Z,99.99
2018-12-16T10:26:45.985Z,99.99
2018-12-16T10:27:55.938Z,99.91
2018-12-16T10:29:05.759Z,99.44
2018-12-16T10:30:15.609Z,99.73
2018-12-16T10:31:25.697Z,99.58
2018-12-16T10:32:37.591Z,98.83
2018-12-16T10:33:47.659Z,98.45
2018-12-16T10:34:57.723Z,98.26
2018-12-16T10:36:07.824Z,98.73
2018-12-16T10:37:18.138Z,99.11
2018-12-16T10:38:28.009Z,99.02
2018-12-16T10:39:38.164Z,99.3
2018-12-16T10:40:48.325Z,99.44
2018-12-16T10:41:58.422Z,99.99
2018-12-16T10:43:08.236Z,99.99
2018-12-16T10:44:18.356Z,99.99
2018-12-16T10:45:28.459Z,99.99
2018-12-16T10:46:38.536Z,99.99
2018-12-16T10:47:48.631Z,99.91
2018-12-16T10:49:04.629Z,99.63
2018-12-16T10:50:14.991Z,99.99
2018-12-16T10:51:24.570Z,99.99
2018-12-16T10:52:34.678Z,99.99
2018-12-16T10:53:44.766Z,99.63
2018-12-16T10:55:03.225Z,99.68
2018-12-16T10:56:13.411Z,99.91
2018-12-16T10:57:23.507Z,99.99
2018-12-16T10:58:33.600Z,99.99
2018-12-16T10:59:43.747Z,99.73
2018-12-16T11:00:53.876Z,99.91
2018-12-16T11:02:03.985Z,99.91
2018-12-16T11:03:14.075Z,99.97
2018-12-16T11:04:24.159Z,99.99
2018-12-16T11:05:34.321Z,99.91
2018-12-16T11:06:44.408Z,99.99
2018-12-16T11:07:54.520Z,99.91
2018-12-16T11:09:05.781Z,99.99
2018-12-16T11:10:15.999Z,99.82
2018-12-16T11:11:25.909Z,99.99
2018-12-16T11:12:35.780Z,99.99
2018-12-16T11:13:45.923Z,99.82
2018-12-16T11:14:55.989Z,99.99
2018-12-16T11:16:08.318Z,99.99
2018-12-16T11:17:18.464Z,99.91
2018-12-16T11:18:28.582Z,99.99
2018-12-16T11:19:38.437Z,99.99
2018-12-16T11:20:48.579Z,99.99
2018-12-16T11:22:00.082Z,99.99
2018-12-16T11:23:10.311Z,99.99
2018-12-16T11:24:20.428Z,99.54
2018-12-16T11:25:30.559Z,99.4
2018-12-16T11:26:40.671Z,99.68
2018-12-16T11:27:50.763Z,99.3
2018-12-16T11:29:00.600Z,99.77
2018-12-16T11:30:10.647Z,99.3
2018-12-16T11:31:20.754Z,99.3
2018-12-16T11:32:30.856Z,99.3
2018-12-16T11:33:41.648Z,99.3
2018-12-16T11:34:51.787Z,98.73
2018-12-16T11:36:01.654Z,98.79
2018-12-16T11:37:11.819Z,98.69
2018-12-16T11:38:21.920Z,98.45
2018-12-16T11:39:32.033Z,99.11
2018-12-16T11:40:42.428Z,99.58
2018-12-16T11:41:52.550Z,99.68
2018-12-16T11:43:02.815Z,99.49
2018-12-16T11:44:12.914Z,99.99
2018-12-16T11:45:23.004Z,99.99
2018-12-16T11:46:33.126Z,99.99
2018-12-16T11:47:43.208Z,99.99
2018-12-16T11:48:53.310Z,99.99
2018-12-16T11:50:03.380Z,99.99
2018-12-16T11:51:13.533Z,99.99
2018-12-16T11:52:24.987Z,99.99
2018-12-16T11:53:35.147Z,99.99
2018-12-16T11:54:45.487Z,99.99
2018-12-16T11:55:55.311Z,99.99
2018-12-16T11:57:05.133Z,99.99
2018-12-16T11:58:15.386Z,99.99
2018-12-16T11:59:25.460Z,99.99
2018-12-16T12:00:35.778Z,99.99
2018-12-16T12:01:45.602Z,99.99
2018-12-16T12:02:55.872Z,99.99
2018-12-16T12:04:05.944Z,99.99
2018-12-16T12:05:16.014Z,99.99
2018-12-16T12:06:26.102Z,99.99
2018-12-16T12:07:36.213Z,99.99
2018-12-16T12:08:46.301Z,99.99
2018-12-16T12:09:56.601Z,99.99
2018-12-16T12:11:07.346Z,99.99
2018-12-16T12:12:18.436Z,99.99
2018-12-16T12:13:29.783Z,99.99
2018-12-16T12:14:41.886Z,99.99
2018-12-16T12:15:53.135Z,99.99
2018-12-16T12:17:03.898Z,99.99
2018-12-16T12:18:13.768Z,99.99
2018-12-16T12:19:23.835Z,99.99
2018-12-16T12:20:33.959Z,99.82
2018-12-16T12:21:44.061Z,99.54
2018-12-16T12:22:54.154Z,99.16
2018-12-16T12:24:04.189Z,99.06
2018-12-16T12:25:19.736Z,99.16
2018-12-16T12:26:30.116Z,99.06
2018-12-16T12:27:40.277Z,99.21
2018-12-16T12:28:50.346Z,99.54
2018-12-16T12:30:00.160Z,99.99
2018-12-16T12:31:11.590Z,99.73
2018-12-16T12:32:21.412Z,99.99
2018-12-16T12:33:31.560Z,99.99
2018-12-16T12:34:41.646Z,99.99
2018-12-16T12:35:51.720Z,99.99
2018-12-16T12:37:01.559Z,99.99
2018-12-16T12:38:11.878Z,99.99
2018-12-16T12:39:22.010Z,99.99
2018-12-16T12:40:31.797Z,99.99
2018-12-16T12:41:41.906Z,99.99
2018-12-16T12:42:51.997Z,99.99
2018-12-16T12:44:02.075Z,99.99
2018-12-16T12:45:12.006Z,99.99
2018-12-16T12:46:22.119Z,99.99
2018-12-16T12:47:31.954Z,99.99
2018-12-16T12:48:42.064Z,99.99
2018-12-16T12:49:52.566Z,99.99
2018-12-16T12:51:03.741Z,99.99
2018-12-16T12:52:13.553Z,99.99
2018-12-16T12:53:23.354Z,99.99
2018-12-16T12:54:33.158Z,99.99
2018-12-16T12:55:43.276Z,99.99
2018-12-16T12:56:53.413Z,99.99
2018-12-16T12:58:03.497Z,99.99
2018-12-16T12:59:13.382Z,99.99
2018-12-16T13:00:23.468Z,99.99
2018-12-16T13:01:33.256Z,99.99
2018-12-16T13:02:43.636Z,99.99
2018-12-16T13:03:53.714Z,99.99
2018-12-16T13:05:04.972Z,99.99
2018-12-16T13:06:15.041Z,99.99
2018-12-16T13:07:25.193Z,99.99
2018-12-16T13:08:35.317Z,99.99
2018-12-16T13:09:45.428Z,99.99
2018-12-16T13:10:55.530Z,99.99
2018-12-16T13:12:06.494Z,99.99
2018-12-16T13:13:16.569Z,99.99
2018-12-16T13:14:26.686Z,99.99
2018-12-16T13:15:36.746Z,99.99
2018-12-16T13:16:46.852Z,99.99
2018-12-16T13:17:57.176Z,99.99
2018-12-16T13:19:08.000Z,99.99
2018-12-16T13:20:18.137Z,99.99
2018-12-16T13:21:28.233Z,99.99
2018-12-16T13:22:38.297Z,99.99
2018-12-16T13:23:48.397Z,99.99
2018-12-16T13:24:58.508Z,99.99
2018-12-16T13:26:09.135Z,99.99
2018-12-16T13:27:19.299Z,99.99
2018-12-16T13:28:29.364Z,99.99
2018-12-16T13:29:39.514Z,99.99
2018-12-16T13:30:49.598Z,99.99
2018-12-16T13:31:59.698Z,99.99
2018-12-16T13:33:09.519Z,99.99
2018-12-16T13:34:19.864Z,99.99
2018-12-16T13:35:30.289Z,99.99
2018-12-16T13:36:40.346Z,99.99
2018-12-16T13:37:50.874Z,99.99
2018-12-16T13:39:00.953Z,99.99
2018-12-16T13:40:11.016Z,99.99
2018-12-16T13:41:21.218Z,99.99
2018-12-16T13:42:31.355Z,99.99
2018-12-16T13:43:41.481Z,99.99
2018-12-16T13:44:51.561Z,99.99
2018-12-16T13:46:01.660Z,99.99
2018-12-16T13:47:11.757Z,99.99
2018-12-16T13:48:21.573Z,99.99
2018-12-16T13:49:31.691Z,99.99
2018-12-16T13:50:41.770Z,99.99
2018-12-16T13:51:51.829Z,99.99
2018-12-16T13:53:01.887Z,99.99
2018-12-16T13:54:11.965Z,99.99
2018-12-16T13:55:22.161Z,99.99
2018-12-16T13:56:32.224Z,99.99
2018-12-16T13:57:42.287Z,99.99
2018-12-16T13:58:52.266Z,99.99
2018-12-16T14:00:03.375Z,99.99
2018-12-16T14:01:13.521Z,99.99
2018-12-16T14:02:23.692Z,99.99
2018-12-16T14:03:33.754Z,99.99
2018-12-16T14:04:43.813Z,99.99
2018-12-16T14:05:53.630Z,99.99
2018-12-16T14:07:03.995Z,99.99
2018-12-16T14:08:14.067Z,99.99
2018-12-16T14:09:24.149Z,99.99
2018-12-16T14:10:34.264Z,99.99
2018-12-16T14:11:44.333Z,99.99
2018-12-16T14:12:54.485Z,99.99
2018-12-16T14:14:04.531Z,99.99
2018-12-16T14:15:14.604Z,99.99
2018-12-16T14:16:24.682Z,99.99
2018-12-16T14:17:34.754Z,99.99
2018-12-16T14:18:44.934Z,99.99
2018-12-16T14:19:54.756Z,99.99
2018-12-16T14:21:04.600Z,99.99
2018-12-16T14:22:14.698Z,99.99
2018-12-16T14:23:25.021Z,99.99
2018-12-16T14:24:35.219Z,99.99
2018-12-16T14:25:50.585Z,99.99
2018-12-16T14:27:03.241Z,99.99
2018-12-16T14:28:14.198Z,99.99
2018-12-16T14:29:24.283Z,99.99
2018-12-16T14:30:34.440Z,99.99
2018-12-16T14:31:44.000Z,99.99
2018-12-16T14:32:54.135Z,99.99
2018-12-16T14:34:03.952Z,99.99
2018-12-16T14:35:14.069Z,99.99
2018-12-16T14:36:23.877Z,99.99
2018-12-16T14:37:33.451Z,99.99
2018-12-16T14:38:43.275Z,99.99
2018-12-16T14:39:53.337Z,99.99
2018-12-16T14:41:03.312Z,99.99
2018-12-16T14:42:13.444Z,99.99
2018-12-16T14:43:23.501Z,99.99
2018-12-16T14:44:33.336Z,99.99
2018-12-16T14:45:43.413Z,99.99
2018-12-16T14:46:53.586Z,99.99
2018-12-16T14:48:05.082Z,99.99
2018-12-16T14:49:14.906Z,99.99
2018-12-16T14:50:24.800Z,99.99
2018-12-16T14:51:34.864Z,99.99
2018-12-16T14:52:44.986Z,99.99
2018-12-16T14:53:55.076Z,99.99
2018-12-16T14:55:05.404Z,99.99
2018-12-16T14:56:15.479Z,99.99
2018-12-16T14:57:25.797Z,99.99
2018-12-16T14:58:35.949Z,99.99
2018-12-16T14:59:46.026Z,99.99
2018-12-16T15:00:56.099Z,99.99
2018-12-16T15:02:06.170Z,99.99
2018-12-16T15:03:16.242Z,99.99
2018-12-16T15:04:26.364Z,99.99
2018-12-16T15:05:36.483Z,99.99
2018-12-16T15:06:46.586Z,99.99
2018-12-16T15:07:56.690Z,99.99
2018-12-16T15:09:07.872Z,99.99
2018-12-16T15:10:17.955Z,99.99
2018-12-16T15:11:28.037Z,99.99
2018-12-16T15:12:38.089Z,99.99
2018-12-16T15:13:48.170Z,99.99
2018-12-16T15:14:58.313Z,99.99
2018-12-16T15:16:12.733Z,99.99
2018-12-16T15:17:22.806Z,99.99
2018-12-16T15:18:32.640Z,99.99
2018-12-16T15:19:42.715Z,99.99
2018-12-16T15:20:52.775Z,99.99
2018-12-16T15:22:05.299Z,99.99
2018-12-16T15:23:14.592Z,99.99
2018-12-16T15:24:24.675Z,99.99
2018-12-16T15:25:34.483Z,99.99
2018-12-16T15:26:44.271Z,99.99
2018-12-16T15:27:55.676Z,99.99
2018-12-16T15:29:06.047Z,99.99
2018-12-16T15:30:15.905Z,99.99
2018-12-16T15:31:26.072Z,99.99
2018-12-16T15:32:36.188Z,99.99
2018-12-16T15:33:46.286Z,99.99
2018-12-16T15:34:56.403Z,99.99
2018-12-16T15:36:06.336Z,99.99
2018-12-16T15:37:16.534Z,99.99